M I D A S
Marine Information and Data Acquisition System
Tripno 945 of the Zeeleeuw from 2005-04-13 06:34:00 to 2005-04-13 13:48:16
Back to CruiseResearch ActivitiesStationsMapUnderway DataData graphs

EquipmentUnitsComment
TimeDGPSUTC
LatitudeDGPSDM.mWGS84
LongitudeDGPSDM.mWGS84
TemperatureSBE03/SBE38deg celciusITS90
ConductivitySBE21S/mITS90
SalinitySBE21 Practical Salinity Units
ChlorophylAChelsea fluorimeterg/lCalibrated in Aceton
Missing or incorrect values are displayed as -999
Sea surface data collected by the RV Zeeleeuw from 2005-04-13 06:30:56 to 2005-04-13 13:59:09
Time Latitude Longitude Temperature Conductivity Salinity ChlorophylA
2005-04-13 06:32:01 51°13.594 2°56.098 16.3649 0.078129 0.430221 -0.848668
2005-04-13 06:33:01 51°13.59 2°56.104 16.3718 0.078129 0.430284 -0.882377
2005-04-13 06:34:02 51°13.564 2°56.14 16.3664 0.078129 0.430332 -0.882377
2005-04-13 06:35:02 51°13.551 2°56.202 10.7984 2.639945 18.837473 4.106614
2005-04-13 06:36:03 51°13.554 2°56.205 9.7013 2.634541 22.865205 11.017042
2005-04-13 06:37:03 51°13.554 2°56.197 9.4414 2.78499 24.766898 11.69123
2005-04-13 06:38:01 51°13.547 2°56.189 9.3442 2.8576 25.673241 10.376563
2005-04-13 06:39:02 51°13.546 2°56.187 9.3459 2.729228 24.42085 8.691093
2005-04-13 06:40:03 51°13.586 2°56.089 9.3195 2.698508 24.134027 8.118033
2005-04-13 06:41:02 51°13.644 2°55.955 9.1937 2.804565 25.271771 8.724802
2005-04-13 06:42:02 51°13.692 2°55.848 9.1979 2.856655 25.844734 7.983195
2005-04-13 06:43:01 51°13.75 2°55.72 9.1519 2.832873 25.613071 9.028187
2005-04-13 06:44:02 51°13.86 2°55.606 9.0942 2.919381 26.52376 8.219161
2005-04-13 06:45:01 51°13.992 2°55.513 9.0499 2.991903 27.293495 9.163024
2005-04-13 06:46:02 51°14.134 2°55.415 9.0787 3.029167 27.688729 10.174306
2005-04-13 06:47:02 51°14.263 2°55.255 9.0837 3.02843 27.673013 8.994477
2005-04-13 06:48:02 51°14.388 2°55.018 9.0874 3.021903 27.597651 8.927059
2005-04-13 06:49:02 51°14.513 2°54.72 8.9776 3.067066 28.078022 10.039469
2005-04-13 06:50:02 51°14.637 2°54.406 8.8095 3.160246 29.169484 12.062033
2005-04-13 06:51:01 51°14.763 2°54.097 8.7954 3.190046 29.536149 11.69123
2005-04-13 06:52:02 51°14.89 2°53.787 8.8067 3.185518 29.495932 11.08446
2005-04-13 06:53:01 51°15.004 2°53.473 8.8322 3.214686 29.787329 12.399127
2005-04-13 06:54:01 51°15.099 2°53.142 8.7747 3.227007 29.918578 9.904631
2005-04-13 06:55:02 51°15.195 2°52.81 8.7611 3.252281 30.206167 8.522546
2005-04-13 06:56:01 51°15.278 2°52.477 8.7189 3.250702 30.220837 9.769794
2005-04-13 06:57:01 51°15.351 2°52.13 8.7081 3.255231 30.293546 11.522683
2005-04-13 06:58:02 51°15.418 2°51.767 8.6905 3.262287 30.37901 12.533965
2005-04-13 06:59:02 51°15.413 2°51.439 8.6988 3.260391 30.360877 10.882204
2005-04-13 07:00:02 51°15.403 2°51.237 8.693 3.26513 30.408336 10.983332
2005-04-13 07:01:02 51°15.413 2°51.105 8.6914 3.247754 30.231298 10.376563
2005-04-13 07:02:03 51°15.434 2°51.012 8.691 3.271238 30.474187 10.983332
2005-04-13 07:03:02 51°15.456 2°50.943 8.6888 3.268816 30.452745 10.882204
2005-04-13 07:04:02 51°15.473 2°50.885 8.6933 3.275451 30.521926 10.208016
2005-04-13 07:05:02 51°15.489 2°50.836 8.6987 3.272397 30.48543 10.241725
2005-04-13 07:06:02 51°15.502 2°50.792 8.7008 3.27166 30.475692 10.578819
2005-04-13 07:07:02 51°15.513 2°50.743 8.699 3.272818 30.487644 10.54511
2005-04-13 07:08:02 51°15.521 2°50.691 8.7004 3.271554 30.476026 10.54511
2005-04-13 07:09:01 51°15.524 2°50.64 8.6998 3.275662 30.517696 10.443982
2005-04-13 07:10:01 51°15.521 2°50.589 8.7032 3.274503 30.503609 10.781076
2005-04-13 07:11:02 51°15.512 2°50.544 8.7056 3.279032 30.550339 10.578819
2005-04-13 07:12:02 51°15.498 2°50.511 8.7075 3.278189 30.536662 10.208016
2005-04-13 07:13:02 51°15.482 2°50.49 8.6962 3.280506 30.563419 10.646238
2005-04-13 07:14:02 51°15.47 2°50.48 8.6996 3.283666 30.604588 10.5114
2005-04-13 07:15:01 51°15.462 2°50.473 8.7062 3.282086 30.582574 10.814785
2005-04-13 07:16:03 51°15.455 2°50.467 8.7001 3.282507 30.588348 11.017042
2005-04-13 07:17:02 51°15.452 2°50.458 8.6987 3.273239 30.496967 10.679947
2005-04-13 07:18:00 51°15.451 2°50.449 8.7015 3.278084 30.544829 10.983332
2005-04-13 07:19:01 51°15.451 2°50.44 8.7057 3.272397 30.484008 10.915913
2005-04-13 07:20:02 51°15.452 2°50.429 8.7042 3.273134 30.487351 10.983332
2005-04-13 07:21:02 51°15.453 2°50.419 8.7065 3.270922 30.467376 10.949623
2005-04-13 07:22:02 51°15.454 2°50.409 8.7059 3.271133 30.467418 10.781076
2005-04-13 07:23:02 51°15.455 2°50.399 8.7035 3.231958 30.062943 10.477691
2005-04-13 07:24:02 51°15.456 2°50.388 8.7026 3.278821 30.548878 10.882204
2005-04-13 07:25:03 51°15.457 2°50.376 8.7042 3.277662 30.535499 11.050751
2005-04-13 07:26:01 51°15.458 2°50.364 8.7057 3.27861 30.545992 10.949623
2005-04-13 07:27:01 51°15.459 2°50.352 8.7029 3.279242 30.551089 11.185589
2005-04-13 07:28:02 51°15.459 2°50.339 8.7072 3.279032 30.546779 10.983332
2005-04-13 07:29:02 51°15.459 2°50.326 8.7098 3.278926 30.545693 10.679947
2005-04-13 07:30:03 51°15.46 2°50.313 8.7141 3.278716 30.543519 11.556392
2005-04-13 07:31:01 51°15.461 2°50.301 8.7126 3.278926 30.541422 11.286717
2005-04-13 07:32:01 51°15.462 2°50.287 8.7114 3.278294 30.537749 11.017042
2005-04-13 07:33:02 51°15.463 2°50.273 8.7062 3.278294 30.537037 10.915913
2005-04-13 07:34:02 51°15.463 2°50.259 8.7094 3.278084 30.536999 11.522683
2005-04-13 07:35:01 51°15.463 2°50.247 8.7123 3.277873 30.535537 11.151879
2005-04-13 07:36:00 51°15.461 2°50.234 8.7062 3.277978 30.537335 11.65752
2005-04-13 07:37:02 51°15.458 2°50.221 8.7057 3.277978 30.538759 11.65752
2005-04-13 07:38:01 51°15.451 2°50.211 8.7086 3.277978 30.536624 12.331708
2005-04-13 07:39:02 51°15.401 2°50.216 8.7025 3.277873 30.535537 12.062033
2005-04-13 07:40:02 51°15.334 2°50.178 8.6961 3.276715 30.526429 12.23058
2005-04-13 07:41:01 51°15.279 2°50.093 8.6878 3.274819 30.516115 12.668802
2005-04-13 07:42:02 51°15.234 2°49.986 8.6858 3.274714 30.522145 12.668802
2005-04-13 07:43:02 51°15.214 2°49.883 8.6857 3.278084 30.559078 12.972187
2005-04-13 07:44:01 51°15.211 2°49.787 8.6818 3.280506 30.585519 13.107024
2005-04-13 07:45:02 51°15.225 2°49.694 8.6832 3.283034 30.612338 13.713794
2005-04-13 07:46:01 51°15.256 2°49.627 8.6856 3.284824 30.628689 14.48911
2005-04-13 07:47:02 51°15.298 2°49.585 8.692 3.285877 30.640282 13.545247
2005-04-13 07:48:01 51°15.339 2°49.575 8.69 3.287246 30.652996 13.646375
2005-04-13 07:49:02 51°15.371 2°49.599 8.6837 3.2883 30.662445 13.275571
2005-04-13 07:50:01 51°15.383 2°49.642 8.6836 3.297884 30.769365 12.76993
2005-04-13 07:51:02 51°15.378 2°49.677 8.6843 3.293881 30.724413 12.601383
2005-04-13 07:52:01 51°15.368 2°49.695 8.6826 3.290617 30.688528 12.668802
2005-04-13 07:53:02 51°15.358 2°49.702 8.6885 3.288089 30.661699 13.275571
2005-04-13 07:54:01 51°15.349 2°49.703 8.6903 3.287141 30.650478 12.904768
2005-04-13 07:55:00 51°15.342 2°49.699 8.6946 3.285877 30.633137 13.005896
2005-04-13 07:56:02 51°15.335 2°49.69 8.6967 3.282507 30.59334 14.4554
2005-04-13 07:57:01 51°15.329 2°49.677 8.6926 3.28019 30.572272 13.107024
2005-04-13 07:58:02 51°15.323 2°49.66 8.6892 3.28019 30.573698 13.646375
2005-04-13 07:59:02 51°15.317 2°49.642 8.6926 3.280717 30.5827 12.80364
2005-04-13 08:00:02 51°15.312 2°49.623 8.6896 3.284929 30.626919 13.275571
2005-04-13 08:01:01 51°15.307 2°49.604 8.6869 3.285245 30.629468 12.871059
2005-04-13 08:02:02 51°15.302 2°49.584 8.6923 3.283876 30.6139 13.174443
2005-04-13 08:03:02 51°15.297 2°49.563 8.6905 3.282507 30.598334 13.646375
2005-04-13 08:04:02 51°15.292 2°49.542 8.6906 3.28177 30.590009 13.511537
2005-04-13 08:05:02 51°15.287 2°49.519 8.6952 3.280927 30.582736 13.3767
2005-04-13 08:06:02 51°15.282 2°49.496 8.6968 3.279032 30.558175 14.118306
2005-04-13 08:07:02 51°15.276 2°49.472 8.7067 3.276083 30.528448 13.91605
2005-04-13 08:08:02 51°15.27 2°49.448 8.7003 3.270817 30.474103 13.680084
2005-04-13 08:09:03 51°15.266 2°49.424 8.699 3.272502 30.490781 13.814922
2005-04-13 08:10:02 51°15.261 2°49.399 8.6972 3.269869 30.462902 14.421691
2005-04-13 08:11:02 51°15.256 2°49.374 8.7009 3.27008 30.465075 14.556529
2005-04-13 08:12:02 51°15.251 2°49.352 8.7017 3.269659 30.462859 13.612665
2005-04-13 08:13:01 51°15.207 2°49.329 8.6966 3.270712 30.471595 14.253144
2005-04-13 08:14:02 51°15.153 2°49.272 8.688 3.269237 30.459222 14.253144
2005-04-13 08:15:02 51°15.101 2°49.193 8.6874 3.269238 30.464905 14.084597
2005-04-13 08:16:02 51°15.05 2°49.105 8.6861 3.272186 30.495342 14.826204
2005-04-13 08:17:02 51°15.009 2°49.031 8.6848 3.271133 30.489448 14.826204
2005-04-13 08:18:03 51°14.974 2°48.976 8.6923 3.275662 30.531931 14.354272
2005-04-13 08:19:02 51°14.945 2°48.935 8.6917 3.281243 30.585998 14.48911
2005-04-13 08:20:02 51°14.92 2°48.898 8.6856 3.284403 30.620766 14.893623
2005-04-13 08:21:01 51°14.899 2°48.867 8.691 3.284719 30.624744 14.590238
2005-04-13 08:22:02 51°14.88 2°48.837 8.699 3.285351 30.62627 15.534101
2005-04-13 08:23:02 51°14.864 2°48.808 8.7077 3.283666 30.602447 14.826204
2005-04-13 08:24:03 51°14.848 2°48.779 8.7129 3.281559 30.573575 14.657657
2005-04-13 08:25:01 51°14.836 2°48.752 8.7135 3.283771 30.594263 15.534101
2005-04-13 08:26:01 51°14.818 2°48.725 8.7149 3.283139 30.58489 14.320563
2005-04-13 08:27:02 51°14.769 2°48.668 8.7191 3.280506 30.557721 14.556529
2005-04-13 08:28:01 51°14.725 2°48.582 8.7075 3.283876 30.592498 14.286853
2005-04-13 08:29:02 51°14.686 2°48.475 8.6895 3.291038 30.679285 14.556529
2005-04-13 08:30:02 51°14.66 2°48.358 8.684 3.299147 30.773814 15.500392
2005-04-13 08:31:01 51°14.648 2°48.239 8.6951 3.304097 30.824978 13.511537
2005-04-13 08:32:02 51°14.643 2°48.12 8.7093 3.305677 30.833399 15.298136
2005-04-13 08:33:02 51°14.646 2°48.014 8.722 3.305361 30.816481 15.264426
2005-04-13 08:34:02 51°14.655 2°47.916 8.7278 3.307046 30.826706 14.522819
2005-04-13 08:35:01 51°14.667 2°47.824 8.7309 3.308204 30.832207 14.253144
2005-04-13 08:36:02 51°14.682 2°47.727 8.7322 3.308415 30.832946 14.792494
2005-04-13 08:37:02 51°14.697 2°47.637 8.733 3.309363 30.844172 14.017178
2005-04-13 08:38:02 51°14.709 2°47.549 8.7327 3.308204 30.831489 15.702648
2005-04-13 08:39:03 51°14.721 2°47.462 8.7314 3.3101 30.84963 14.725076
2005-04-13 08:40:03 51°14.732 2°47.376 8.738 3.307151 30.817023 15.60152
2005-04-13 08:41:01 51°14.742 2°47.292 8.734 3.308731 30.833336 16.140871
2005-04-13 08:42:02 51°14.754 2°47.204 8.7349 3.309889 30.846018 14.185725
2005-04-13 08:43:03 51°14.764 2°47.116 8.7397 3.307678 30.82246 15.567811
2005-04-13 08:44:02 51°14.775 2°47.029 8.7556 3.305992 30.797888 15.60152
2005-04-13 08:45:02 51°14.785 2°46.942 8.745 3.3101 30.83383 15.432973
2005-04-13 08:46:02 51°14.794 2°46.854 8.7464 3.307467 30.810956 14.859913
2005-04-13 08:47:02 51°14.805 2°46.769 8.7469 3.309152 30.829787 15.163298
2005-04-13 08:48:02 51°14.818 2°46.685 8.7488 3.3101 30.841728 14.48911
2005-04-13 08:49:03 51°14.832 2°46.601 8.7444 3.311153 30.854039 14.219435
2005-04-13 08:50:01 51°14.846 2°46.52 8.7476 3.316946 30.909542 15.197007
2005-04-13 08:51:02 51°14.86 2°46.437 8.7469 3.324213 30.985326 14.522819
2005-04-13 08:52:01 51°14.874 2°46.355 8.742 3.325688 31.002003 15.095879
2005-04-13 08:53:02 51°14.888 2°46.272 8.7454 3.327689 31.023402 14.387982
2005-04-13 08:54:03 51°14.903 2°46.19 8.7504 3.326319 31.007088 13.814922
2005-04-13 08:55:03 51°14.918 2°46.109 8.7535 3.324634 30.984628 14.387982
2005-04-13 08:56:02 51°14.934 2°46.03 8.7578 3.322738 30.96 13.444118
2005-04-13 08:57:02 51°14.949 2°45.95 8.757 3.323792 30.970156 14.320563
2005-04-13 08:58:02 51°14.963 2°45.87 8.7596 3.326109 30.994086 14.354272
2005-04-13 08:59:03 51°14.978 2°45.789 8.7566 3.329058 31.02599 15.06217
2005-04-13 09:00:02 51°14.992 2°45.709 8.7646 3.332112 31.055375 14.556529
2005-04-13 09:01:02 51°15.006 2°45.629 8.7657 3.335798 31.089842 14.792494
2005-04-13 09:02:01 51°15.018 2°45.549 8.7617 3.339695 31.12576 14.826204
2005-04-13 09:03:01 51°15.03 2°45.469 8.761 3.343382 31.168201 15.63523
2005-04-13 09:04:02 51°15.044 2°45.386 8.7595 3.344962 31.186707 16.107161
2005-04-13 09:05:01 51°15.056 2°45.307 8.7623 3.346226 31.198319 14.050888
2005-04-13 09:06:02 51°15.07 2°45.222 8.7672 3.346436 31.19977 13.882341
2005-04-13 09:07:02 51°15.086 2°45.142 8.7697 3.347595 31.208114 15.904905
2005-04-13 09:08:02 51°15.101 2°45.061 8.7769 3.347489 31.20412 15.837486
2005-04-13 09:09:02 51°15.116 2°44.979 8.7802 3.348227 31.207383 15.264426
2005-04-13 09:10:02 51°15.132 2°44.897 8.789 3.347911 31.197585 13.949759
2005-04-13 09:11:03 51°15.149 2°44.815 8.7849 3.349807 31.214268 15.163298
2005-04-13 09:12:03 51°15.168 2°44.735 8.7845 3.348753 31.203387 14.657657
2005-04-13 09:13:01 51°15.189 2°44.661 8.7826 3.35423 31.261428 14.522819
2005-04-13 09:14:01 51°15.214 2°44.59 8.7896 3.355494 31.275944 14.421691
2005-04-13 09:15:02 51°15.239 2°44.518 8.7858 3.356442 31.284285 14.152016
2005-04-13 09:16:02 51°15.263 2°44.447 8.7297 3.36529 31.393996 14.657657
2005-04-13 09:17:01 51°15.286 2°44.38 8.7016 3.375613 31.538246 16.376836
2005-04-13 09:18:02 51°15.313 2°44.316 8.6835 3.380985 31.6175 16.140871
2005-04-13 09:19:02 51°15.341 2°44.259 8.674 3.382986 31.650812 16.006033
2005-04-13 09:20:02 51°15.369 2°44.205 8.6695 3.383829 31.659557 16.848768
2005-04-13 09:21:01 51°15.396 2°44.151 8.667 3.384145 31.670228 15.837486
2005-04-13 09:22:02 51°15.425 2°44.096 8.6661 3.385515 31.686662 15.871195
2005-04-13 09:23:02 51°15.451 2°44.04 8.6737 3.384251 31.6728 15.399264
2005-04-13 09:24:00 51°15.476 2°43.981 8.6798 3.384567 31.669426 16.208289
2005-04-13 09:25:03 51°15.499 2°43.915 8.6789 3.385936 31.680681 16.579093
2005-04-13 09:26:03 51°15.52 2°43.849 8.6743 3.389728 31.723742 16.579093
2005-04-13 09:27:02 51°15.54 2°43.783 8.6703 3.392783 31.759163 17.354409
2005-04-13 09:28:01 51°15.559 2°43.718 8.6669 3.395205 31.785806 16.275708
2005-04-13 09:29:02 51°15.578 2°43.647 8.6603 3.398049 31.820546 16.882477
2005-04-13 09:30:02 51°15.597 2°43.584 8.647 3.401947 31.868482 17.556665
2005-04-13 09:31:01 51°15.621 2°43.538 8.631 3.408056 31.941687 20.421965
2005-04-13 09:32:03 51°15.64 2°43.506 8.6117 3.414798 32.031266 18.3994
2005-04-13 09:33:03 51°15.652 2°43.478 8.6127 3.417643 32.070621 18.43311
2005-04-13 09:34:03 51°15.66 2°43.451 8.6084 3.418696 32.079339 17.994888
2005-04-13 09:35:02 51°15.669 2°43.42 8.6156 3.419012 32.08263 18.770204
2005-04-13 09:36:02 51°15.679 2°43.377 8.6033 3.419749 32.098567 19.039879
2005-04-13 09:37:02 51°15.685 2°43.323 8.6029 3.420697 32.109193 20.489383
2005-04-13 09:38:02 51°15.686 2°43.26 8.6026 3.421961 32.124616 20.354546
2005-04-13 09:39:02 51°15.676 2°43.193 8.6021 3.423015 32.134088 19.680358
2005-04-13 09:40:02 51°15.657 2°43.128 8.6055 3.424384 32.149107 22.107435
2005-04-13 09:41:01 51°15.632 2°43.071 8.5959 3.427123 32.18141 20.388255
2005-04-13 09:42:02 51°15.601 2°43.022 8.5931 3.428809 32.201237 21.500665
2005-04-13 09:43:02 51°15.567 2°42.976 8.5941 3.430389 32.221478 21.365828
2005-04-13 09:44:02 51°15.529 2°42.934 8.5968 3.430705 32.220248 22.511947
2005-04-13 09:45:01 51°15.488 2°42.895 8.5903 3.430705 32.221002 20.792768
2005-04-13 09:46:02 51°15.444 2°42.853 8.5848 3.432074 32.238295 22.006306
2005-04-13 09:47:03 51°15.396 2°42.805 8.5797 3.432917 32.254631 23.927742
2005-04-13 09:48:02 51°15.351 2°42.753 8.5784 3.432812 32.257309 23.186136
2005-04-13 09:49:03 51°15.304 2°42.7 8.5785 3.433338 32.262802 22.714204
2005-04-13 09:50:02 51°15.258 2°42.659 8.5865 3.43239 32.249894 21.635503
2005-04-13 09:51:03 51°15.21 2°42.622 8.5834 3.43218 32.246942 21.80405
2005-04-13 09:52:01 51°15.164 2°42.588 8.5866 3.431442 32.239252 21.80405
2005-04-13 09:53:02 51°15.115 2°42.561 8.587 3.430073 32.223463 22.646785
2005-04-13 09:54:01 51°15.067 2°42.534 8.5875 3.429441 32.211594 24.06258
2005-04-13 09:55:03 51°15.015 2°42.503 8.5869 3.428493 32.206988 23.017589
2005-04-13 09:56:02 51°14.966 2°42.47 8.6079 3.425648 32.166041 21.669212
2005-04-13 09:57:03 51°14.917 2°42.436 8.6217 3.420171 32.095447 24.231127
2005-04-13 09:58:02 51°14.869 2°42.402 8.6286 3.416062 32.044423 22.37711
2005-04-13 09:59:02 51°14.821 2°42.369 8.6285 3.413113 32.009233 22.107435
2005-04-13 10:00:03 51°14.771 2°42.335 8.6292 3.411111 31.987658 22.208563
2005-04-13 10:01:03 51°14.722 2°42.298 8.6349 3.411217 31.990998 23.388392
2005-04-13 10:02:03 51°14.674 2°42.254 8.6443 3.406477 31.93421 22.275982
2005-04-13 10:03:02 51°14.628 2°42.203 8.6436 3.402052 31.880002 20.253418
2005-04-13 10:04:01 51°14.583 2°42.153 8.6465 3.401631 31.874876 21.163571
2005-04-13 10:05:03 51°14.535 2°42.1 8.6483 3.39826 31.837604 21.871469
2005-04-13 10:06:01 51°14.489 2°42.055 8.6455 3.39826 31.836861 23.186136
2005-04-13 10:07:02 51°14.443 2°42.006 8.6524 3.39826 31.841324 22.37711
2005-04-13 10:08:03 51°14.397 2°41.956 8.6815 3.394257 31.781154 21.433247
2005-04-13 10:09:03 51°14.352 2°41.908 8.7101 3.388674 31.700228 20.354546
2005-04-13 10:10:02 51°14.309 2°41.859 8.7158 3.384777 31.638384 21.534375
2005-04-13 10:11:03 51°14.264 2°41.817 8.7064 3.385619 31.647858 22.141144
2005-04-13 10:12:03 51°14.22 2°41.774 8.6835 3.39194 31.733374 23.927742
2005-04-13 10:13:03 51°14.176 2°41.727 8.7159 3.390992 31.722056 21.905178
2005-04-13 10:14:03 51°14.132 2°41.681 8.7355 3.38741 31.659783 20.725349
2005-04-13 10:15:03 51°14.09 2°41.635 8.7491 3.385303 31.621729 21.972597
2005-04-13 10:16:01 51°14.05 2°41.595 8.749 3.385724 31.621674 22.478238
2005-04-13 10:17:02 51°14.009 2°41.552 8.7513 3.386672 31.628549 20.455674
2005-04-13 10:18:03 51°13.969 2°41.508 8.7492 3.388252 31.641969 19.983742
2005-04-13 10:19:02 51°13.931 2°41.462 8.743 3.389516 31.658749 21.096153
2005-04-13 10:20:01 51°13.892 2°41.416 8.7416 3.382459 31.587849 21.163571
2005-04-13 10:21:03 51°13.852 2°41.367 8.7427 3.39236 31.691169 22.37711
2005-04-13 10:22:01 51°13.813 2°41.323 8.748 3.393203 31.699164 22.511947
2005-04-13 10:23:01 51°13.773 2°41.276 8.7494 3.394467 31.710047 22.040016
2005-04-13 10:24:02 51°13.733 2°41.228 8.7491 3.395099 31.716597 21.466956
2005-04-13 10:25:03 51°13.692 2°41.179 8.7485 3.395836 31.722022 22.040016
2005-04-13 10:26:02 51°13.652 2°41.132 8.7516 3.396468 31.730049 23.085007
2005-04-13 10:27:01 51°13.611 2°41.085 8.7489 3.3971 31.735121 22.006306
2005-04-13 10:28:02 51°13.569 2°41.037 8.745 3.397838 31.74498 20.590512
2005-04-13 10:29:02 51°13.528 2°40.992 8.7397 3.398786 31.755546 21.062443
2005-04-13 10:30:03 51°13.486 2°40.949 8.7478 3.400155 31.77048 22.91646
2005-04-13 10:31:03 51°13.445 2°40.903 8.7516 3.400998 31.775515 22.006306
2005-04-13 10:32:03 51°13.405 2°40.856 8.7535 3.402051 31.784213 23.320973
2005-04-13 10:33:03 51°13.364 2°40.809 8.7558 3.403526 31.797277 22.444529
2005-04-13 10:34:03 51°13.322 2°40.763 8.7613 3.404895 31.811471 26.658204
2005-04-13 10:35:03 51°13.28 2°40.718 8.7545 3.406791 31.828161 24.770477
2005-04-13 10:36:01 51°13.239 2°40.674 8.7584 3.408266 31.844931 23.152426
2005-04-13 10:37:03 51°13.194 2°40.627 8.7624 3.410583 31.864504 23.961452
2005-04-13 10:38:01 51°13.152 2°40.583 8.7691 3.412795 31.884467 24.365965
2005-04-13 10:39:02 51°13.107 2°40.535 8.7801 3.415113 31.900323 22.781623
2005-04-13 10:40:01 51°13.064 2°40.488 8.7859 3.417114 31.912898 25.343537
2005-04-13 10:41:02 51°13.019 2°40.442 8.7885 3.419853 31.939053 25.107571
2005-04-13 10:42:03 51°12.975 2°40.396 8.7906 3.422486 31.962629 22.849042
2005-04-13 10:43:03 51°12.93 2°40.35 8.7909 3.424804 31.988136 24.197418
2005-04-13 10:44:03 51°12.886 2°40.303 8.7901 3.427226 32.010271 26.826751
2005-04-13 10:45:01 51°12.843 2°40.259 8.7903 3.428806 32.028885 23.219845
2005-04-13 10:46:01 51°12.8 2°40.214 8.7872 3.430387 32.043775 24.028871
2005-04-13 10:47:02 51°12.756 2°40.17 8.7892 3.431967 32.059411 25.309828
2005-04-13 10:47:57 51°12.716 2°40.131 8.7839 3.435127 32.09591 25.613212
2005-04-13 10:48:27 51°12.694 2°40.109 8.7832 3.436812 32.117873 25.040153
2005-04-13 10:49:12 51°12.661 2°40.078 8.7703 3.442712 32.182065 23.927742
2005-04-13 10:50:11 51°12.619 2°40.037 8.7696 3.448084 32.24157 24.231127
2005-04-13 10:51:13 51°12.579 2°39.993 8.7629 3.454089 32.309922 29.220118
2005-04-13 10:52:13 51°12.543 2°39.951 8.7736 3.45588 32.32852 23.826614
2005-04-13 10:53:12 51°12.507 2°39.905 8.7696 3.455564 32.322981 26.489657
2005-04-13 10:54:13 51°12.473 2°39.859 8.7612 3.457776 32.349721 26.186272
2005-04-13 10:55:12 51°12.445 2°39.821 8.7559 3.461463 32.392546 27.804324
2005-04-13 10:56:13 51°12.421 2°39.789 8.7675 3.463148 32.411569 27.366101
2005-04-13 10:57:13 51°12.349 2°39.702 8.7865 3.458935 32.36025 28.411093
2005-04-13 10:58:12 51°12.222 2°39.441 8.7631 3.454615 32.297346 24.129999
2005-04-13 10:59:12 51°12.074 2°39.133 8.7382 3.469364 32.480704 26.422238
2005-04-13 11:00:11 51°11.927 2°38.832 8.6962 3.494332 32.764068 26.388529
2005-04-13 11:01:12 51°11.778 2°38.522 8.6863 3.51319 32.992868 27.130136
2005-04-13 11:02:13 51°11.628 2°38.216 8.6731 3.522988 33.107489 26.2874
2005-04-13 11:03:12 51°11.482 2°37.917 8.6589 3.532681 33.214935 28.613349
2005-04-13 11:04:12 51°11.331 2°37.614 8.6398 3.544586 33.356513 25.107571
2005-04-13 11:05:12 51°11.184 2°37.315 8.6377 3.550908 33.437497 24.63564
2005-04-13 11:06:11 51°11.035 2°37.019 8.6316 3.552488 33.454041 25.815469
2005-04-13 11:07:11 51°10.834 2°36.825 8.6369 3.548379 33.417281 24.332255
2005-04-13 11:08:12 51°10.604 2°36.714 8.6162 3.550276 33.436353 26.085144
2005-04-13 11:09:11 51°10.386 2°36.599 8.6013 3.554701 33.504629 28.107708
2005-04-13 11:10:11 51°10.155 2°36.483 8.6167 3.554174 33.50303 26.793042
2005-04-13 11:11:11 51°9.928 2°36.395 8.6546 3.553226 33.472721 26.590785
2005-04-13 11:12:13 51°9.694 2°36.302 8.6403 3.551224 33.41502 26.995298
2005-04-13 11:13:12 51°9.466 2°36.241 8.653 3.545219 33.382632 27.500939
2005-04-13 11:14:12 51°9.31 2°36.243 8.653 3.541215 33.323586 29.590922
2005-04-13 11:15:11 51°9.26 2°36.242 8.6549 3.538476 33.291046 29.961725
2005-04-13 11:16:11 51°9.228 2°36.224 8.6575 3.536158 33.265254 30.602204
2005-04-13 11:17:12 51°9.202 2°36.207 8.6525 3.535526 33.2602 32.051708
2005-04-13 11:18:11 51°9.133 2°36.187 8.6665 3.535526 33.257091 31.478648
2005-04-13 11:19:11 51°9.069 2°36.124 8.6536 3.534999 33.253915 29.590922
2005-04-13 11:20:11 51°9.033 2°36.035 8.6542 3.533629 33.24348 31.37752
2005-04-13 11:21:12 51°9.019 2°35.953 8.659 3.532997 33.235317 33.534922
2005-04-13 11:22:12 51°9.011 2°35.883 8.6614 3.532997 33.229881 33.06299
2005-04-13 11:23:12 51°9.001 2°35.81 8.6611 3.532997 33.229104 34.242819
2005-04-13 11:24:13 51°8.99 2°35.721 8.6754 3.532892 33.227227 31.512358
2005-04-13 11:25:13 51°8.979 2°35.633 8.6746 3.534261 33.233778 30.83817
2005-04-13 11:26:12 51°8.967 2°35.548 8.6811 3.534788 33.235402 31.782033
2005-04-13 11:27:11 51°8.955 2°35.465 8.6843 3.53542 33.238902 32.422512
2005-04-13 11:28:12 51°8.941 2°35.38 8.6911 3.535841 33.237872 31.512358
2005-04-13 11:29:11 51°8.927 2°35.298 8.6859 3.536368 33.241823 32.692187
2005-04-13 11:30:12 51°8.913 2°35.214 8.6923 3.536263 33.23917 35.557486
2005-04-13 11:31:12 51°8.901 2°35.134 8.6909 3.537 33.246098 36.804734
2005-04-13 11:32:11 51°8.891 2°35.055 8.6964 3.537422 33.245844 32.759606
2005-04-13 11:33:13 51°8.883 2°34.973 8.6993 3.538159 33.249667 34.411366
2005-04-13 11:34:12 51°8.877 2°34.895 8.7076 3.539002 33.256142 33.770888
2005-04-13 11:35:12 51°8.871 2°34.819 8.7119 3.539634 33.256535 34.613623
2005-04-13 11:36:12 51°8.867 2°34.744 8.7203 3.541636 33.269676 36.130546
2005-04-13 11:37:12 51°8.862 2°34.669 8.7254 3.542794 33.277895 35.658614
2005-04-13 11:38:12 51°8.857 2°34.594 8.7246 3.541952 33.26444 33.231537
2005-04-13 11:39:12 51°8.852 2°34.518 8.7245 3.543005 33.276215 36.568768
2005-04-13 11:40:12 51°8.845 2°34.442 8.7308 3.543427 33.279062 37.175537
2005-04-13 11:41:12 51°8.838 2°34.367 8.7203 3.539739 33.241346 34.984426
2005-04-13 11:42:13 51°8.83 2°34.292 8.7206 3.543427 33.285272 34.950717
2005-04-13 11:43:12 51°8.822 2°34.218 8.7191 3.539212 33.241275 35.32152
2005-04-13 11:44:12 51°8.812 2°34.147 8.72 3.542584 33.275696 37.816016
2005-04-13 11:45:11 51°8.801 2°34.079 8.7213 3.543216 33.281519 34.276529
2005-04-13 11:46:12 51°8.789 2°34.01 8.7326 3.542057 33.264764 35.220392
2005-04-13 11:47:11 51°8.777 2°33.945 8.7356 3.543743 33.280809 35.35523
2005-04-13 11:48:12 51°8.763 2°33.88 8.7355 3.541109 33.246338 36.299093
2005-04-13 11:49:12 51°8.745 2°33.818 8.7471 3.542478 33.254429 35.658614
2005-04-13 11:50:11 51°8.728 2°33.759 8.7453 3.543216 33.259798 35.928289
2005-04-13 11:51:12 51°8.723 2°33.693 8.7465 3.537632 33.199998 34.984426
2005-04-13 11:52:12 51°8.727 2°33.633 8.7597 3.541319 33.237688 35.658614
2005-04-13 11:53:12 51°8.731 2°33.589 8.7619 3.541424 33.231817 32.287674
2005-04-13 11:54:12 51°8.739 2°33.54 8.7558 3.548378 33.3028 35.422648
2005-04-13 11:55:13 51°8.708 2°33.397 8.7568 3.548483 33.303899 33.332665
2005-04-13 11:56:11 51°8.578 2°33.293 8.7612 3.548589 33.301119 33.130409
2005-04-13 11:57:12 51°8.393 2°33.203 8.7593 3.548589 33.287936 39.063264
2005-04-13 11:58:13 51°8.255 2°33.155 8.7474 3.546271 33.287799 35.793452
2005-04-13 11:59:11 51°8.187 2°33.171 8.762 3.545323 33.270152 36.669896
2005-04-13 12:00:11 51°8.143 2°33.176 8.7794 3.543215 33.235011 36.905862
2005-04-13 12:01:12 51°8.113 2°33.176 8.7856 3.542372 33.217714 38.1194
2005-04-13 12:02:12 51°8.093 2°33.175 8.7881 3.541213 33.200225 40.37793
2005-04-13 12:03:12 51°8.056 2°33.17 8.7987 3.540792 33.188881 37.344084
2005-04-13 12:04:11 51°8.009 2°33.1 8.8036 3.541002 33.175635 36.973281
2005-04-13 12:05:12 51°8.031 2°32.993 8.8069 3.540265 33.175672 34.141691
2005-04-13 12:06:12 51°8.104 2°32.958 8.8036 3.540686 33.178518 40.040836
2005-04-13 12:07:13 51°8.173 2°32.988 8.7955 3.540897 33.183028 36.636187
2005-04-13 12:08:11 51°8.228 2°33.043 8.7835 3.542267 33.204247 33.703469
2005-04-13 12:09:11 51°8.278 2°33.108 8.7754 3.542899 33.223205 39.332939
2005-04-13 12:10:12 51°8.317 2°33.166 8.7679 3.543426 33.235659 37.647469
2005-04-13 12:11:12 51°8.355 2°33.221 8.7607 3.543848 33.246247 34.141691
2005-04-13 12:12:12 51°8.383 2°33.289 8.7498 3.543953 33.252767 38.591332
2005-04-13 12:13:13 51°8.402 2°33.367 8.7502 3.544691 33.266659 38.658751
2005-04-13 12:14:12 51°8.415 2°33.449 8.755 3.545112 33.271055 36.703606
2005-04-13 12:15:13 51°8.427 2°33.533 8.7522 3.542162 33.237186 39.939708
2005-04-13 12:16:12 51°8.442 2°33.614 8.7571 3.545112 33.267954 38.523913
2005-04-13 12:17:12 51°8.459 2°33.695 8.7533 3.54469 33.264334 39.26552
2005-04-13 12:18:12 51°8.477 2°33.775 8.7569 3.544796 33.264657 39.939708
2005-04-13 12:19:12 51°8.5 2°33.854 8.748 3.544691 33.268209 40.782443
2005-04-13 12:20:11 51°8.527 2°33.926 8.7513 3.543953 33.263616 36.804734
2005-04-13 12:21:13 51°8.559 2°33.998 8.7489 3.543742 33.261418 37.748597
2005-04-13 12:22:13 51°8.586 2°34.068 8.7297 3.543005 33.2607 38.962136
2005-04-13 12:23:12 51°8.611 2°34.139 8.7234 3.54153 33.257714 37.984563
2005-04-13 12:24:11 51°8.636 2°34.209 8.7234 3.541741 33.263792 38.355366
2005-04-13 12:25:12 51°8.661 2°34.283 8.71 3.541109 33.2634 37.074409
2005-04-13 12:26:13 51°8.688 2°34.356 8.7076 3.539845 33.256407 38.793589
2005-04-13 12:27:11 51°8.714 2°34.426 8.7 3.539423 33.25511 39.737452
2005-04-13 12:28:13 51°8.74 2°34.501 8.6957 3.538791 33.253165 37.883435
2005-04-13 12:29:11 51°8.765 2°34.572 8.6941 3.537632 33.244941 41.793725
2005-04-13 12:30:13 51°8.792 2°34.647 8.6911 3.537211 33.243643 40.108255
2005-04-13 12:31:12 51°8.818 2°34.717 8.6862 3.536684 33.243573 36.197965
2005-04-13 12:32:11 51°8.846 2°34.788 8.6807 3.536368 33.244152 37.950853
2005-04-13 12:33:11 51°8.873 2°34.859 8.6769 3.531943 33.202576 39.905999
2005-04-13 12:34:12 51°8.901 2°34.931 8.676 3.535736 33.242981 38.928426
2005-04-13 12:35:12 51°8.928 2°35.006 8.6738 3.534893 33.238055 39.467777
2005-04-13 12:36:13 51°8.955 2°35.082 8.6676 3.534788 33.24239 39.872289
2005-04-13 12:37:13 51°8.982 2°35.157 8.662 3.534788 33.243943 43.580324
2005-04-13 12:38:13 51°9.008 2°35.233 8.6676 3.534683 33.243618 37.0407
2005-04-13 12:39:12 51°9.033 2°35.31 8.662 3.534577 33.244847 38.827298
2005-04-13 12:40:12 51°9.053 2°35.395 8.66 3.533945 33.239793 39.939708
2005-04-13 12:41:12 51°9.067 2°35.482 8.6593 3.533945 33.242123 38.1194
2005-04-13 12:42:13 51°9.077 2°35.572 8.6625 3.532997 33.230657 39.096973
2005-04-13 12:43:13 51°9.082 2°35.669 8.6651 3.515719 33.050112 40.007127
2005-04-13 12:44:11 51°9.079 2°35.745 8.6583 3.53089 33.205528 39.737452
2005-04-13 12:45:13 51°9.073 2°35.805 8.6554 3.524779 33.143996 41.422922
2005-04-13 12:46:12 51°9.068 2°35.852 8.6667 3.529099 33.189136 37.849725
2005-04-13 12:47:12 51°9.063 2°35.891 8.656 3.528256 33.178777 39.568905
2005-04-13 12:48:13 51°9.061 2°35.926 8.6594 3.527518 33.17107 40.209383
2005-04-13 12:49:12 51°9.061 2°35.956 8.6542 3.528888 33.185383 39.804871
2005-04-13 12:50:12 51°9.063 2°35.985 8.6573 3.524252 33.139266 40.007127
2005-04-13 12:51:12 51°9.065 2°36.014 8.6571 3.520776 33.102939 43.849999
2005-04-13 12:52:13 51°9.057 2°36.055 8.6573 3.526886 33.168339 40.141965
2005-04-13 12:53:11 51°9.027 2°36.228 8.656 3.520565 33.102285 36.669896
2005-04-13 12:54:12 51°9.115 2°36.51 8.6647 3.525727 33.156228 39.771161
2005-04-13 12:55:13 51°9.23 2°36.835 8.6632 3.521829 33.107758 40.816153
2005-04-13 12:56:13 51°9.343 2°37.162 8.663 3.51614 33.050652 38.759879
2005-04-13 12:57:13 51°9.462 2°37.482 8.6874 3.514244 33.026217 42.434204
2005-04-13 12:58:13 51°9.554 2°37.827 8.7022 3.514349 33.008813 38.962136
2005-04-13 12:59:12 51°9.647 2°38.168 8.7107 3.512347 32.970222 40.310512
2005-04-13 13:00:13 51°9.743 2°38.519 8.7218 3.508238 32.919694 41.254375
2005-04-13 13:01:13 51°9.839 2°38.867 8.7329 3.506236 32.894224 41.355503
2005-04-13 13:02:13 51°9.937 2°39.213 8.7574 3.502022 32.834994 38.220529
2005-04-13 13:03:13 51°10.034 2°39.562 8.7733 3.499177 32.781684 36.939571
2005-04-13 13:04:13 51°10.131 2°39.913 8.7779 3.495279 32.725118 37.714888
2005-04-13 13:05:13 51°10.227 2°40.264 8.7865 3.488115 32.648349 38.456494
2005-04-13 13:06:11 51°10.328 2°40.597 8.7972 3.484112 32.601425 43.344358
2005-04-13 13:07:11 51°10.437 2°40.93 8.8286 3.473261 32.477355 37.141828
2005-04-13 13:08:13 51°10.547 2°41.27 8.8572 3.445976 32.160572 36.400221
2005-04-13 13:09:13 51°10.656 2°41.6 8.8644 3.416902 31.838129 35.557486
2005-04-13 13:10:13 51°10.752 2°41.942 8.8606 3.398679 31.649795 37.748597
2005-04-13 13:11:12 51°10.84 2°42.285 8.8667 3.382985 31.49064 36.535059
2005-04-13 13:12:12 51°10.93 2°42.631 8.862 3.376981 31.42137 36.703606
2005-04-13 13:13:13 51°11.015 2°42.986 8.8589 3.365289 31.308018 38.557623
2005-04-13 13:14:13 51°11.098 2°43.338 8.8496 3.356547 31.225096 37.546341
2005-04-13 13:15:13 51°11.181 2°43.691 8.8608 3.346225 31.118656 35.119264
2005-04-13 13:16:13 51°11.267 2°44.04 8.8646 3.331584 30.958432 34.78217
2005-04-13 13:17:11 51°11.351 2°44.38 8.8629 3.315259 30.78964 41.490341
2005-04-13 13:18:13 51°11.44 2°44.737 8.8482 3.304095 30.67335 37.108118
2005-04-13 13:19:13 51°11.529 2°45.087 8.8544 3.289246 30.527029 41.052118
2005-04-13 13:20:13 51°11.617 2°45.44 8.8647 3.281557 30.440937 36.905862
2005-04-13 13:21:13 51°11.704 2°45.794 8.8572 3.273975 30.358813 36.737315
2005-04-13 13:22:13 51°11.792 2°46.149 8.8667 3.268709 30.306145 33.63605
2005-04-13 13:23:13 51°11.88 2°46.504 8.8929 3.257757 30.18741 33.298956
2005-04-13 13:24:13 51°11.969 2°46.861 8.878 3.250069 30.101563 37.276665
2005-04-13 13:25:13 51°12.062 2°47.215 8.8735 3.244171 30.048755 33.433794
2005-04-13 13:26:12 51°12.162 2°47.557 8.8705 3.234483 29.945259 41.254375
2005-04-13 13:27:13 51°12.266 2°47.91 8.876 3.227217 29.852812 40.040836
2005-04-13 13:28:12 51°12.365 2°48.251 8.9366 3.226901 29.849577 36.703606
2005-04-13 13:29:13 51°12.47 2°48.61 8.9148 3.221741 29.78847 37.108118
2005-04-13 13:30:13 51°12.572 2°48.961 8.9065 3.213422 29.71436 36.905862
2005-04-13 13:31:13 51°12.675 2°49.314 8.891 3.208789 29.673822 34.411366
2005-04-13 13:32:12 51°12.777 2°49.656 8.8906 3.205103 29.639541 36.096836
2005-04-13 13:33:12 51°12.912 2°49.982 8.8968 3.201733 29.603688 35.152973
2005-04-13 13:34:13 51°13.046 2°50.317 8.9144 3.200996 29.596833 39.164392
2005-04-13 13:35:13 51°13.176 2°50.641 8.9009 3.196679 29.551981 36.973281
2005-04-13 13:36:13 51°13.309 2°50.97 8.888 3.188992 29.472682 35.119264
2005-04-13 13:37:13 51°13.439 2°51.297 8.887 3.183411 29.414943 34.242819
2005-04-13 13:38:13 51°13.569 2°51.632 8.9042 3.181937 29.406006 34.917007
2005-04-13 13:39:13 51°13.7 2°51.965 8.9107 3.176145 29.337967 37.714888
2005-04-13 13:40:13 51°13.828 2°52.298 8.9207 3.172355 29.290417 33.298956
2005-04-13 13:41:13 51°13.962 2°52.636 8.9284 3.168037 29.236852 34.984426
2005-04-13 13:42:13 51°14.092 2°52.97 8.9354 3.163299 29.172284 43.951127
2005-04-13 13:43:12 51°14.215 2°53.312 8.9466 3.159298 29.128108 34.141691
2005-04-13 13:44:13 51°14.332 2°53.667 8.9569 3.156244 29.096301 36.332802
2005-04-13 13:45:13 51°14.423 2°54.036 8.9573 3.152875 29.05389 35.220392
2005-04-13 13:46:13 51°14.446 2°54.4 8.9798 3.151506 29.028531 38.591332
2005-04-13 13:47:13 51°14.429 2°54.752 8.9909 3.151927 29.024101 35.388939
2005-04-13 13:48:13 51°14.36 2°55.058 8.9957 3.152032 29.017128 35.186683
2005-04-13 13:49:12 51°14.252 2°55.265 9.0499 3.152769 29.032008 36.905862
2005-04-13 13:50:13 51°14.133 2°55.401 9.2986 0.997964 6.915636 -0.680121
2005-04-13 13:51:13 51°14.016 2°55.489 9.4565 0.157375 0.954363 -0.916087
2005-04-13 13:52:13 51°13.901 2°55.578 9.6523 0.087382 0.523178 -0.781249
2005-04-13 13:53:13 51°13.804 2°55.659 9.8332 0.074907 0.450787 -0.74754
2005-04-13 13:54:12 51°13.739 2°55.769 10.0173 0.06971 0.424134 -0.848668
2005-04-13 13:55:13 51°13.686 2°55.876 10.8344 0.067215 0.413599 -0.814958
2005-04-13 13:56:12 51°13.64 2°55.962 12.8647 0.065656 0.407512 -0.882377
2005-04-13 13:57:12 51°13.609 2°56.044 14.3133 0.064409 0.403084 -0.882377
2005-04-13 13:58:14 51°13.595 2°56.101 15.0049 0.06337 0.400791 -0.916087